Time;durP1;ratioP1;P1;durP2;ratioP2;P2;SDS_P1;SDS_P2;PMS_P1;PMS_P2;Temp;Humidity;BMP_temperature;BMP_pressure;BME280_temperature;BME280_humidity;BME280_pressure;Samples;Min_cycle;Max_cycle;Signal;HPM_P1;HPM_P2
2022/05/11 00:00:15;;;;;;;10.55;4.05;;;;;;;13.79;63.82;99029.59;4485533;32;20092;-74
2022/05/11 00:02:42;;;;;;;8.85;3.70;;;;;;;13.82;63.98;99026.66;4485612;31;20115;-74
2022/05/11 00:05:11;;;;;;;5.35;3.92;;;;;;;13.90;63.48;99029.38;4485396;31;20088;-74
2022/05/11 00:07:38;;;;;;;8.50;3.42;;;;;;;13.97;62.87;99019.03;4485548;31;20115;-74
2022/05/11 00:10:12;;;;;;;5.68;3.87;;;;;;;13.98;63.13;99015.44;4485301;32;20093;-74
2022/05/11 00:12:40;;;;;;;;;;;;;;;13.94;63.38;99012.25;4485703;31;20092;-74
2022/05/11 00:15:09;;;;;;;7.32;3.58;;;;;;;13.90;63.86;99023.25;4485239;31;19992;-74
2022/05/11 00:17:37;;;;;;;11.40;3.75;;;;;;;13.87;63.90;99023.56;4485175;32;20096;-74
2022/05/11 00:20:06;;;;;;;6.37;3.28;;;;;;;14.00;63.24;99021.38;4483863;32;20096;-74
2022/05/11 00:22:34;;;;;;;5.50;3.12;;;;;;;13.95;63.55;99021.00;4485210;32;20092;-74
2022/05/11 00:25:02;;;;;;;4.35;3.22;;;;;;;13.86;63.85;99014.84;4485362;31;20398;-74
2022/05/11 00:27:30;;;;;;;8.02;3.67;;;;;;;13.79;64.54;99021.69;4485074;31;20149;-74
2022/05/11 00:29:58;;;;;;;6.32;3.05;;;;;;;13.71;64.69;99024.25;4485151;31;20120;-74
2022/05/11 00:32:26;;;;;;;9.07;3.70;;;;;;;13.67;64.62;99013.19;4485704;31;20084;-74
2022/05/11 00:34:53;;;;;;;11.35;4.00;;;;;;;13.60;65.32;99020.88;4483941;32;20084;-74
2022/05/11 00:37:21;;;;;;;5.72;3.65;;;;;;;13.56;65.94;99016.88;4485215;31;20099;-74
2022/05/11 00:39:48;;;;;;;4.78;3.42;;;;;;;13.54;65.14;99016.22;4485169;31;20161;-74
2022/05/11 00:42:15;;;;;;;5.95;3.53;;;;;;;13.58;65.14;99016.72;4485168;31;20111;-74
2022/05/11 00:44:43;;;;;;;7.85;3.60;;;;;;;13.59;65.15;99011.31;4485157;31;20081;-74
2022/05/11 00:47:19;;;;;;;8.18;3.65;;;;;;;13.66;64.56;99016.81;4484984;31;20382;-74
2022/05/11 00:49:50;;;;;;;7.82;3.85;;;;;;;13.71;64.61;99024.25;4484760;31;20123;-74
2022/05/11 00:52:23;;;;;;;11.85;3.92;;;;;;;13.84;63.69;99020.25;4485271;31;20126;-74
2022/05/11 00:55:03;;;;;;;9.57;4.30;;;;;;;13.88;63.78;99018.16;4485311;31;20104;-74
2022/05/11 00:57:34;;;;;;;9.73;3.95;;;;;;;13.82;63.96;99021.38;4483745;32;20106;-74
2022/05/11 01:00:08;;;;;;;9.75;3.55;;;;;;;13.81;63.98;99017.13;4485205;31;20115;-74
2022/05/11 01:02:35;;;;;;;6.03;3.25;;;;;;;13.74;63.98;99019.50;4485137;31;20107;-74
2022/05/11 01:05:05;;;;;;;6.05;3.37;;;;;;;13.71;64.54;99008.47;4483760;32;20110;-74
2022/05/11 01:07:34;;;;;;;7.40;3.10;;;;;;;13.68;64.38;99008.78;4485052;31;20096;-74
2022/05/11 01:10:03;;;;;;;4.22;3.12;;;;;;;13.65;64.93;99010.69;4484894;31;20097;-74
2022/05/11 01:12:39;;;;;;;6.15;3.70;;;;;;;13.79;64.17;99016.41;4485118;31;20420;-74
2022/05/11 01:15:08;;;;;;;6.20;3.75;;;;;;;13.77;64.33;99015.75;4484967;31;20076;-74
2022/05/11 01:17:37;;;;;;;4.72;3.53;;;;;;;13.72;64.66;99015.41;4483738;32;20462;-74
2022/05/11 01:20:09;;;;;;;7.22;3.85;;;;;;;13.66;64.96;99014.19;4484617;31;20453;-74
2022/05/11 01:23:13;;;;;;;7.53;3.60;;;;;;;13.67;65.08;99015.81;4485021;31;20103;-74
2022/05/11 01:25:40;;;;;;;7.22;3.70;;;;;;;13.62;65.03;99013.62;4484904;31;20155;-74
2022/05/11 01:28:11;;;;;;;5.50;3.95;;;;;;;13.68;64.99;99011.41;4484627;31;20084;-74
2022/05/11 01:30:50;;;;;;;5.87;3.35;;;;;;;13.73;64.33;99009.13;4484922;31;20514;-74
2022/05/11 01:33:22;;;;;;;9.73;3.60;;;;;;;13.70;64.63;99009.44;4485043;31;20104;-74
2022/05/11 01:36:05;;;;;;;9.10;3.60;;;;;;;13.69;64.63;99010.41;4485261;31;20103;-74
2022/05/11 01:38:50;;;;;;;10.20;3.90;;;;;;;13.73;64.71;99017.03;4483864;32;20261;-74
2022/05/11 01:41:27;;;;;;;7.37;3.42;;;;;;;13.69;64.92;99019.16;4484288;31;20505;-74
2022/05/11 01:43:55;;;;;;;5.50;3.20;;;;;;;13.63;65.07;99020.56;4483842;32;20151;-74
2022/05/11 01:46:22;;;;;;;7.60;4.30;;;;;;;13.69;64.66;99018.31;4484627;31;20601;-74
2022/05/11 01:48:49;;;;;;;6.40;3.20;;;;;;;13.66;64.96;99014.19;4484648;31;20092;-74
2022/05/11 01:51:19;;;;;;;13.55;4.40;;;;;;;13.64;64.78;99009.06;4484524;32;20142;-74
2022/05/11 01:53:47;;;;;;;7.32;3.55;;;;;;;13.66;64.88;99017.63;4484641;31;20088;-74
2022/05/11 01:56:15;;;;;;;6.47;3.30;;;;;;;13.62;65.05;99015.47;4484536;31;20127;-74
2022/05/11 01:58:43;;;;;;;10.05;3.85;;;;;;;13.68;65.06;99017.47;4484572;31;20143;-74
2022/05/11 02:01:11;;;;;;;6.30;3.58;;;;;;;13.62;65.18;99018.91;4483193;32;20104;-74
2022/05/11 02:03:38;;;;;;;7.37;3.42;;;;;;;13.63;65.05;99023.19;4483135;32;20171;-74
2022/05/11 02:08:52;;;;;;;4.50;3.50;;;;;;;13.61;65.31;99022.53;4484219;32;20409;-74
2022/05/11 02:11:19;;;;;;;6.75;3.62;;;;;;;13.62;65.40;99013.62;4484195;31;20089;-74
2022/05/11 02:13:46;;;;;;;9.30;4.32;;;;;;;13.59;65.56;99013.94;4484340;31;20121;-74
2022/05/11 02:16:14;;;;;;;10.45;3.80;;;;;;;13.62;65.39;99013.62;4484236;31;20112;-74
2022/05/11 02:18:41;;;;;;;5.72;3.40;;;;;;;13.57;65.89;99008.00;4484134;31;20446;-74
2022/05/11 02:21:08;;;;;;;6.62;3.62;;;;;;;13.58;65.79;99009.69;4483866;31;20554;-74
2022/05/11 02:23:37;;;;;;;8.07;4.07;;;;;;;13.54;65.98;99010.13;4484200;31;20108;-74
2022/05/11 02:26:05;;;;;;;6.05;3.78;;;;;;;13.51;65.61;99013.06;4483915;31;20446;-73
2022/05/11 02:28:32;;;;;;;6.82;3.87;;;;;;;13.46;66.33;99003.00;4482737;32;20107;-74
2022/05/11 02:31:02;;;;;;;5.85;4.22;;;;;;;13.44;66.74;99003.13;4484013;31;20398;-74
2022/05/11 02:33:30;;;;;;;4.78;3.50;;;;;;;13.34;67.36;99006.78;4484059;31;20131;-74
2022/05/11 02:35:57;;;;;;;4.75;3.33;;;;;;;13.25;67.90;99014.56;4483786;31;20549;-74
2022/05/11 02:38:33;;;;;;;5.68;3.55;;;;;;;13.24;67.63;99007.66;4483993;31;20123;-74
2022/05/11 02:41:01;;;;;;;7.20;4.37;;;;;;;13.17;68.42;99014.50;4483871;32;20119;-74
2022/05/11 02:43:28;;;;;;;7.80;4.12;;;;;;;13.08;68.66;99003.06;4483847;31;20164;-74
2022/05/11 02:45:55;;;;;;;9.52;4.82;;;;;;;12.95;69.79;99005.19;4483626;31;20450;-74
2022/05/11 02:48:25;;;;;;;5.20;3.78;;;;;;;12.95;69.34;99002.56;4483765;31;20450;-74
2022/05/11 02:50:54;;;;;;;5.37;3.83;;;;;;;12.85;70.25;99007.84;4483505;32;20100;-73
2022/05/11 02:53:24;;;;;;;7.40;4.55;;;;;;;12.82;69.99;99000.25;4485159;31;20080;-74
2022/05/11 02:55:53;;;;;;;8.27;3.45;;;;;;;12.80;70.24;99006.66;4485766;31;20101;-74
2022/05/11 02:58:22;;;;;;;7.15;4.00;;;;;;;12.92;69.71;99002.87;4485789;31;20152;-75
2022/05/11 03:00:51;;;;;;;12.70;4.62;;;;;;;13.00;68.47;99004.75;4485779;31;20119;-74
2022/05/11 03:03:19;;;;;;;8.93;3.78;;;;;;;12.95;68.52;99002.56;4484542;32;20179;-74
2022/05/11 03:05:48;;;;;;;11.18;4.30;;;;;;;12.96;69.26;98998.97;4486018;31;20114;-74
2022/05/11 03:08:15;;;;;;;7.07;4.07;;;;;;;12.84;69.75;99008.00;4485742;32;20167;-74
2022/05/11 03:10:44;;;;;;;8.82;3.97;;;;;;;12.82;70.19;99008.16;4485718;31;20092;-74
2022/05/11 03:13:11;;;;;;;12.05;4.70;;;;;;;12.70;70.82;99002.28;4484807;32;20196;-74
2022/05/11 03:15:38;;;;;;;6.93;4.50;;;;;;;12.55;72.29;99004.53;4485902;31;20113;-74
2022/05/11 03:18:05;;;;;;;6.57;4.90;;;;;;;12.54;71.99;99005.50;4485586;31;20123;-74
2022/05/11 03:20:33;;;;;;;9.80;4.37;;;;;;;12.51;71.95;99004.97;4485458;32;20097;-74
2022/05/11 03:23:00;;;;;;;11.05;4.30;;;;;;;12.47;73.41;99009.69;4485620;31;20492;-74
2022/05/11 03:25:27;;;;;;;13.48;4.60;;;;;;;12.35;73.57;99000.31;4485795;32;20199;-74
2022/05/11 03:27:55;;;;;;;9.38;4.65;;;;;;;12.48;72.18;99006.09;4485562;31;20147;-74
2022/05/11 03:30:22;;;;;;;7.03;3.80;;;;;;;12.48;71.99;99011.34;4485555;31;20096;-74
2022/05/11 03:35:36;;;;;;;6.07;3.70;;;;;;;12.63;71.63;99013.50;4485854;32;20110;-74
2022/05/11 03:38:03;;;;;;;6.30;4.32;;;;;;;12.60;72.20;99015.44;4485610;31;20096;-74
2022/05/11 03:40:31;;;;;;;7.32;4.47;;;;;;;12.70;71.84;99014.56;4485479;31;20096;-74
2022/05/11 03:43:01;;;;;;;5.53;4.03;;;;;;;12.71;71.62;99014.44;4485396;31;20168;-74
2022/05/11 03:45:28;;;;;;;7.82;3.83;;;;;;;12.70;72.07;99015.41;4485544;31;20161;-74
2022/05/11 03:47:56;;;;;;;5.10;4.25;;;;;;;12.68;72.45;99027.03;4485383;31;20191;-74
2022/05/11 03:50:25;;;;;;;8.07;4.22;;;;;;;12.73;71.83;99024.81;4485237;31;20176;-74
2022/05/11 03:52:53;;;;;;;8.55;4.87;;;;;;;12.78;73.26;99027.84;4485499;31;20111;-74
2022/05/11 03:55:22;;;;;;;9.30;4.12;;;;;;;12.79;72.06;99029.47;4485334;31;20100;-74
2022/05/11 03:57:49;;;;;;;9.30;4.22;;;;;;;12.94;71.24;99021.94;4485687;31;20122;-74
2022/05/11 04:00:20;;;;;;;9.43;4.93;;;;;;;13.03;70.96;99025.50;4484727;31;20127;-73
2022/05/11 04:02:49;;;;;;;7.90;4.28;;;;;;;13.11;71.33;99031.69;4484787;31;20478;-74
2022/05/11 04:05:17;;;;;;;5.68;4.10;;;;;;;13.18;71.50;99024.03;4485387;31;20089;-74
2022/05/11 04:07:44;;;;;;;9.57;4.37;;;;;;;13.27;70.53;99033.66;4497395;31;20106;-73
2022/05/11 04:10:13;;;;;;;6.03;3.97;;;;;;;13.39;69.82;99036.94;4500257;31;20419;-74
2022/05/11 04:12:40;;;;;;;6.90;4.03;;;;;;;13.56;69.02;99039.75;4499809;31;20126;-74
2022/05/11 04:15:09;;;;;;;6.40;4.07;;;;;;;13.73;67.97;99032.81;4499793;31;20108;-74
2022/05/11 04:17:38;;;;;;;11.95;4.30;;;;;;;13.91;67.36;99040.72;4499195;31;20107;-74
2022/05/11 04:20:06;;;;;;;8.70;3.80;;;;;;;14.17;65.61;99046.03;4499851;31;20104;-74
2022/05/11 04:22:33;;;;;;;12.80;4.95;;;;;;;14.31;65.35;99049.94;4498056;31;20096;-74
2022/05/11 04:25:01;;;;;;;10.63;4.78;;;;;;;14.55;64.62;99039.53;4499662;31;20154;-74
2022/05/11 04:27:29;;;;;;;10.35;4.45;;;;;;;14.72;64.21;99035.19;4500044;31;20130;-73
2022/05/11 04:29:56;;;;;;;6.32;4.20;;;;;;;14.83;63.85;99046.47;4499617;31;20560;-74
2022/05/11 04:32:24;;;;;;;5.55;3.67;;;;;;;14.98;63.34;99039.59;4485017;31;20123;-74
2022/05/11 04:34:51;;;;;;;8.88;4.30;;;;;;;15.09;62.84;99033.22;4484067;31;20123;-74
2022/05/11 04:37:18;;;;;;;5.97;4.05;;;;;;;15.30;62.37;99043.34;4484948;31;20100;-74
2022/05/11 04:39:45;;;;;;;8.73;4.72;;;;;;;15.42;62.64;99047.34;4484829;32;20146;-74
2022/05/11 04:42:13;;;;;;;5.00;4.00;;;;;;;15.53;62.66;99042.75;4484810;31;20096;-74
2022/05/11 04:44:40;;;;;;;8.07;4.22;;;;;;;15.69;61.80;99037.50;4484921;31;20196;-74
2022/05/11 04:47:09;;;;;;;6.18;4.18;;;;;;;15.84;61.54;99044.81;4485030;31;20084;-74
2022/05/11 04:49:37;;;;;;;9.68;4.20;;;;;;;15.94;61.58;99041.00;4484784;31;20097;-74
2022/05/11 04:52:08;;;;;;;10.35;4.55;;;;;;;16.06;61.32;99043.31;4485065;31;20112;-74
2022/05/11 04:54:37;;;;;;;4.53;3.50;;;;;;;16.20;60.80;99044.44;4484377;31;20120;-74
2022/05/11 04:57:05;;;;;;;6.82;3.62;;;;;;;16.37;59.79;99046.09;4482903;31;20108;-74
2022/05/11 04:59:33;;;;;;;5.35;3.53;;;;;;;16.48;59.94;99048.37;4479545;32;20130;-74
2022/05/11 05:02:02;;;;;;;5.90;3.50;;;;;;;16.66;59.36;99047.38;4478492;32;20120;-74
2022/05/11 05:04:30;;;;;;;4.72;3.37;;;;;;;16.80;59.55;99051.94;4478680;32;20097;-74
2022/05/11 05:06:57;;;;;;;5.68;3.55;;;;;;;16.92;57.95;99052.44;4476775;31;20119;-74
2022/05/11 05:09:25;;;;;;;4.60;3.60;;;;;;;17.02;58.11;99052.25;4478251;32;20145;-74
2022/05/11 05:11:52;;;;;;;12.57;4.85;;;;;;;17.18;57.98;99051.34;4483339;31;20080;-74
2022/05/11 05:14:19;;;;;;;5.82;3.87;;;;;;;17.34;55.83;99051.25;4481121;31;20126;-74
2022/05/11 05:16:47;;;;;;;4.55;3.35;;;;;;;17.50;57.11;99054.81;4470970;32;20217;-74
2022/05/11 05:19:15;;;;;;;5.37;4.18;;;;;;;17.71;56.38;99059.47;4476099;31;20101;-74
2022/05/11 05:21:42;;;;;;;4.62;3.40;;;;;;;17.79;55.61;99053.28;4478349;31;20096;-75
2022/05/11 05:24:10;;;;;;;8.75;3.58;;;;;;;17.91;55.17;99058.03;4480175;31;20422;-75
2022/05/11 05:26:37;;;;;;;5.10;3.60;;;;;;;18.07;54.31;99056.25;4478848;31;20631;-76
2022/05/11 05:31:50;;;;;;;5.62;2.87;;;;;;;18.33;53.73;99057.69;4477788;31;20164;-77
2022/05/11 05:34:17;;;;;;;6.18;3.50;;;;;;;18.47;53.78;99058.72;4479734;32;20521;-77
2022/05/11 05:36:44;;;;;;;4.45;2.95;;;;;;;18.50;53.36;99059.19;4479685;31;20131;-77
2022/05/11 05:39:12;;;;;;;4.25;3.67;;;;;;;18.65;53.50;99068.97;4482422;31;20460;-77
2022/05/11 05:41:40;;;;;;;4.90;3.62;;;;;;;18.76;53.62;99065.91;4482952;31;20119;-77
2022/05/11 05:44:07;;;;;;;3.20;2.90;;;;;;;18.85;53.39;99059.53;4484456;31;20084;-77
2022/05/11 05:46:35;;;;;;;5.25;3.35;;;;;;;18.87;50.11;99059.34;4480326;32;20463;-76
2022/05/11 05:49:03;;;;;;;4.72;3.22;;;;;;;18.85;50.85;99058.66;4474332;32;20382;-76
2022/05/11 05:51:30;;;;;;;7.10;3.42;;;;;;;18.95;51.60;99061.88;4468271;32;20140;-76
2022/05/11 05:53:57;;;;;;;5.65;2.92;;;;;;;18.93;50.31;99062.06;4472711;32;20223;-77
2022/05/11 05:56:25;;;;;;;4.35;3.22;;;;;;;19.09;50.75;99062.87;4467644;32;20103;-77
2022/05/11 05:58:58;;;;;;;8.68;3.20;;;;;;;19.19;49.53;99063.41;4480238;32;20127;-77
2022/05/11 06:01:27;;;;;;;5.62;3.10;;;;;;;19.31;48.57;99056.59;4482766;31;20122;-77
2022/05/11 06:03:54;;;;;;;6.93;2.87;;;;;;;19.42;49.19;99065.09;4480935;32;20117;-77
2022/05/11 06:06:22;;;;;;;8.93;4.65;;;;;;;19.54;48.01;99060.12;4487914;31;20100;-78
2022/05/11 06:08:49;;;;;;;3.62;3.12;;;;;;;19.55;48.31;99059.12;4472781;32;20138;-78
2022/05/11 06:11:16;;;;;;;3.97;2.60;;;;;;;19.54;47.21;99065.44;4476062;31;20685;-77
2022/05/11 06:13:45;;;;;;;7.90;3.30;;;;;;;19.56;48.37;99066.91;4478890;31;20176;-78
2022/05/11 06:16:15;;;;;;;6.22;3.30;;;;;;;19.55;46.87;99070.56;4478167;31;20100;-76
2022/05/11 06:18:44;;;;;;;5.35;3.00;;;;;;;19.66;49.32;99064.75;4480458;32;20186;-75
2022/05/11 06:21:13;;;;;;;7.55;2.65;;;;;;;19.73;48.44;99071.97;4479486;32;20089;-76
2022/05/11 06:23:40;;;;;;;5.60;3.12;;;;;;;19.75;47.37;99072.63;4480229;32;20089;-76
2022/05/11 06:26:09;;;;;;;5.55;2.80;;;;;;;19.72;47.80;99073.00;4477435;31;20204;-76
2022/05/11 06:28:40;;;;;;;6.35;3.47;;;;;;;19.78;47.94;99077.59;4472560;32;21656;-77
2022/05/11 06:31:17;;;;;;;5.37;2.90;;;;;;;19.91;48.59;99071.56;4477856;32;20478;-77
2022/05/11 06:33:49;;;;;;;6.53;3.80;;;;;;;19.94;47.33;99069.38;4481420;32;20092;-78
2022/05/11 06:36:18;;;;;;;4.50;3.00;;;;;;;19.95;46.42;99068.34;4482600;32;20413;-77
2022/05/11 06:38:45;;;;;;;6.50;2.85;;;;;;;20.28;47.50;99069.66;4482705;31;20521;-76
2022/05/11 06:41:18;;;;;;;8.23;3.10;;;;;;;20.38;45.89;99078.94;4476029;32;20096;-77
2022/05/11 06:43:46;;;;;;;5.70;2.80;;;;;;;20.57;46.96;99073.94;4479875;32;20116;-76
2022/05/11 06:46:14;;;;;;;4.65;2.83;;;;;;;20.68;46.61;99073.47;4481403;32;20430;-76
2022/05/11 06:48:41;;;;;;;4.35;2.80;;;;;;;20.52;46.62;99069.22;4483943;32;20096;-76
2022/05/11 06:51:08;;;;;;;7.70;3.00;;;;;;;20.43;46.41;99069.56;4481215;32;20519;-76
2022/05/11 06:59:23;;;;;;;10.70;3.33;;;;;;;20.44;47.38;99074.69;4478763;31;20120;-78
2022/05/11 07:01:53;;;;;;;4.60;3.05;;;;;;;20.34;48.89;99075.00;4478801;31;20111;-77
2022/05/11 07:04:23;;;;;;;8.43;3.30;;;;;;;20.51;49.13;99078.19;4479688;32;20146;-74
2022/05/11 07:06:52;;;;;;;10.55;3.60;;;;;;;20.56;46.95;99072.31;4482602;32;20104;-75
2022/05/11 07:09:21;;;;;;;8.10;3.30;;;;;;;20.66;48.44;99079.97;4482283;32;20108;-75
2022/05/11 07:14:34;;;;;;;6.85;4.07;;;;;;;20.68;49.56;99081.44;4482673;32;20134;-75
2022/05/11 07:17:01;;;;;;;6.45;3.80;;;;;;;20.70;47.17;99076.72;4481256;31;20092;-75
2022/05/11 07:19:28;;;;;;;14.07;5.25;;;;;;;20.80;48.36;99076.38;4483151;31;20126;-76
2022/05/11 07:21:56;;;;;;;8.43;3.62;;;;;;;20.87;49.46;99076.44;4480166;31;20831;-76
2022/05/11 07:24:23;;;;;;;7.53;4.07;;;;;;;20.85;47.88;99081.13;4480933;32;20152;-76
2022/05/11 07:26:51;;;;;;;5.65;3.47;;;;;;;21.05;47.42;99075.91;4476726;31;20188;-75
2022/05/11 07:29:18;;;;;;;6.10;3.47;;;;;;;20.98;47.16;99075.84;4472380;32;20578;-76
2022/05/11 07:31:46;;;;;;;7.05;3.20;;;;;;;20.99;47.10;99072.19;4478639;32;20160;-76
2022/05/11 07:34:13;;;;;;;13.27;4.07;;;;;;;21.25;48.13;99073.31;4477231;31;20156;-75
2022/05/11 07:36:41;;;;;;;9.02;3.95;;;;;;;21.56;50.58;99069.34;4476275;31;20130;-76
2022/05/11 07:39:08;;;;;;;3.92;3.28;;;;;;;21.80;50.51;99075.97;4478260;32;20255;-76
2022/05/11 07:41:35;;;;;;;7.53;3.87;;;;;;;21.99;48.86;99069.03;4483243;32;20088;-74
2022/05/11 07:44:03;;;;;;;11.88;3.80;;;;;;;21.74;47.72;99074.94;4478461;32;20096;-76
2022/05/11 07:46:34;;;;;;;9.30;4.22;;;;;;;21.88;48.01;99070.47;4475956;31;20112;-74
2022/05/11 07:49:04;;;;;;;6.90;4.82;;;;;;;22.20;48.48;99075.22;4481137;32;20253;-75
2022/05/11 07:51:32;;;;;;;11.23;4.07;;;;;;;22.12;49.27;99071.72;4470398;32;20155;-75
2022/05/11 07:53:59;;;;;;;8.23;3.80;;;;;;;22.07;47.84;99082.16;4478343;32;20096;-75
2022/05/11 08:01:58;;;;;;;9.48;5.30;;;;;;;21.91;48.21;99074.56;4481127;32;20096;-75
2022/05/11 08:04:26;;;;;;;8.35;4.20;;;;;;;22.23;49.48;99074.78;4479466;32;20104;-75
2022/05/11 08:06:53;;;;;;;5.03;4.25;;;;;;;22.40;48.47;99073.38;4482983;31;20088;-75
2022/05/11 08:09:21;;;;;;;7.75;4.80;;;;;;;22.52;48.00;99076.25;4481216;32;20135;-75
2022/05/11 08:11:50;;;;;;;7.47;4.00;;;;;;;22.78;50.13;99072.69;4484589;31;20097;-75
2022/05/11 08:14:17;;;;;;;6.80;4.18;;;;;;;22.59;46.46;99078.87;4477573;31;20573;-75
2022/05/11 08:16:44;;;;;;;9.63;4.18;;;;;;;22.36;43.96;99071.31;4474104;32;20096;-75
2022/05/11 08:19:12;;;;;;;7.93;4.60;;;;;;;22.32;45.72;99071.72;4472413;32;20166;-75
2022/05/11 08:21:41;;;;;;;7.68;4.80;;;;;;;22.54;50.92;99076.03;4480521;32;20089;-75
2022/05/11 08:24:08;;;;;;;7.25;4.65;;;;;;;22.59;48.83;99068.19;4472889;32;20096;-75
2022/05/11 08:26:36;;;;;;;9.40;3.97;;;;;;;22.75;46.49;99078.44;4482395;32;20137;-75
2022/05/11 08:29:03;;;;;;;9.27;4.20;;;;;;;22.82;47.25;99073.91;4479580;31;20526;-75
2022/05/11 08:34:16;;;;;;;6.97;4.32;;;;;;;23.07;49.26;99064.41;4476029;32;20088;-75
2022/05/11 08:36:45;;;;;;;7.62;4.30;;;;;;;23.14;47.71;99066.03;4482888;31;20104;-76
2022/05/11 08:39:12;;;;;;;9.40;4.47;;;;;;;23.35;49.84;99061.44;4467437;32;20257;-76
2022/05/11 08:41:47;;;;;;;6.47;3.95;;;;;;;23.38;45.61;99071.72;4469877;32;20104;-76
2022/05/11 08:44:18;;;;;;;7.75;4.10;;;;;;;23.35;46.37;99059.56;4473422;32;20251;-76
2022/05/11 08:47:10;;;;;;;10.40;4.75;;;;;;;23.53;47.98;99058.06;4481416;32;20096;-76
2022/05/11 08:49:52;;;;;;;15.55;4.70;;;;;;;23.56;45.20;99058.44;4477948;32;20092;-76
2022/05/11 08:52:47;;;;;;;7.32;3.75;;;;;;;23.56;45.63;99063.78;4468773;32;20111;-74
2022/05/11 08:55:20;;;;;;;13.40;4.18;;;;;;;23.33;45.24;99069.66;4479797;32;20100;-75
2022/05/11 08:57:49;;;;;;;7.47;4.10;;;;;;;23.38;48.26;99066.34;4476139;32;20119;-76
2022/05/11 09:00:18;;;;;;;9.30;4.20;;;;;;;23.55;44.83;99064.00;4467638;32;20104;-76
2022/05/11 09:02:51;;;;;;;5.87;3.25;;;;;;;23.35;46.69;99066.78;4473477;31;20076;-74
2022/05/11 09:05:23;;;;;;;6.30;3.75;;;;;;;23.67;42.61;99069.50;4473039;32;20107;-76
2022/05/11 09:07:53;;;;;;;10.85;3.78;;;;;;;23.15;41.60;99057.00;4472845;32;20100;-74
2022/05/11 09:10:45;;;;;;;8.45;4.10;;;;;;;23.09;43.90;99057.84;4482047;32;20116;-75
2022/05/11 09:13:14;;;;;;;10.25;3.67;;;;;;;23.66;46.54;99065.16;4484595;32;20122;-75
2022/05/11 09:15:47;;;;;;;6.15;3.45;;;;;;;23.89;47.55;99062.78;4484223;31;20175;-75
2022/05/11 09:18:15;;;;;;;8.98;3.42;;;;;;;23.91;43.08;99054.53;4481027;31;20560;-75
2022/05/11 09:20:52;;;;;;;6.37;3.60;;;;;;;23.84;41.77;99057.22;4478173;31;20104;-78
2022/05/11 09:23:31;;;;;;;5.68;3.42;;;;;;;23.46;41.95;99068.78;4478247;31;20135;-76
2022/05/11 09:26:03;;;;;;;10.70;4.30;;;;;;;23.23;41.21;99061.28;4474905;32;20168;-76
2022/05/11 09:28:33;;;;;;;4.22;2.83;;;;;;;23.57;41.90;99069.94;4468642;32;20151;-75
2022/05/11 09:31:05;;;;;;;7.37;3.22;;;;;;;23.42;36.73;99064.88;4475712;32;20159;-75
2022/05/11 09:33:38;;;;;;;5.12;3.17;;;;;;;23.16;39.26;99063.16;4482721;32;20524;-75
2022/05/11 09:36:07;;;;;;;4.10;3.37;;;;;;;23.26;40.04;99058.19;4478222;31;20116;-75
2022/05/11 09:39:12;;;;;;;5.10;3.42;;;;;;;23.40;38.33;99064.28;4484627;31;20136;-75
2022/05/11 09:41:51;;;;;;;5.20;3.28;;;;;;;23.60;38.34;99053.47;4472574;32;20153;-76
2022/05/11 09:44:41;;;;;;;4.75;2.75;;;;;;;23.91;38.53;99055.34;4477693;32;20453;-77
2022/05/11 09:48:02;;;;;;;4.70;3.75;;;;;;;24.20;39.26;99055.75;4473622;32;20532;-78
2022/05/11 09:50:28;;;;;;;10.85;4.28;;;;;;;24.44;42.43;99066.69;4429506;32;20303;-77
2022/05/11 09:53:07;;;;;;;3.75;3.22;;;;;;;24.42;41.27;99066.91;4428658;32;20110;-77
2022/05/11 09:55:35;;;;;;;4.62;3.40;;;;;;;24.22;38.33;99050.97;4433613;32;20147;-78
2022/05/11 09:58:07;;;;;;;5.75;3.03;;;;;;;24.37;39.50;99057.88;4432574;32;20129;-79
2022/05/11 10:00:39;;;;;;;3.42;2.58;;;;;;;24.72;42.96;99060.03;4432582;32;20252;-77
2022/05/11 10:03:16;;;;;;;5.15;3.35;;;;;;;25.20;42.41;99050.44;4431177;32;20246;-78
2022/05/11 10:05:47;;;;;;;5.82;3.20;;;;;;;25.43;43.48;99055.09;4434265;32;20135;-78
2022/05/11 10:08:21;;;;;;;5.78;3.28;;;;;;;25.68;41.52;99054.97;4419332;32;20223;-78
2022/05/11 10:11:16;;;;;;;4.45;2.95;;;;;;;25.51;39.70;99046.72;4431104;32;20133;-77
2022/05/11 10:21:50;;;;;;;5.20;3.08;;;;;;;25.47;42.49;99053.59;4424244;32;20165;-77
2022/05/11 10:22:42;;;;;;;3.58;2.53;;;;;;;24.94;39.47;99052.38;4431970;32;20119;-78
2022/05/11 10:25:21;;;;;;;5.95;2.70;;;;;;;24.77;35.90;99046.81;4442845;31;20139;-76
2022/05/11 10:28:14;;;;;;;4.40;2.75;;;;;;;24.91;37.41;99039.44;4488765;31;20140;-76
2022/05/11 10:30:56;;;;;;;4.28;2.58;;;;;;;24.75;34.98;99056.91;4432676;32;20718;-75
2022/05/11 10:33:40;;;;;;;3.53;2.45;;;;;;;24.40;34.30;99046.72;4427129;32;20391;-77
2022/05/11 10:36:22;;;;;;;4.78;2.80;;;;;;;24.25;36.02;99045.22;4419177;32;20543;-77
2022/05/11 10:39:26;;;;;;;6.03;2.70;;;;;;;24.54;35.71;99055.44;4430241;32;20170;-75
2022/05/11 10:42:07;;;;;;;5.80;2.87;;;;;;;24.52;34.37;99044.16;4431507;32;20122;-74
2022/05/11 10:44:50;;;;;;;5.22;3.12;;;;;;;24.88;36.52;99042.56;4423928;32;20436;-75
2022/05/11 10:47:39;;;;;;;4.28;3.00;;;;;;;25.46;36.07;99030.50;4404959;32;20159;-76
2022/05/11 10:50:34;;;;;;;7.47;3.53;;;;;;;25.94;35.38;99036.81;4431819;32;20653;-76
2022/05/11 10:53:11;;;;;;;7.68;2.85;;;;;;;26.08;35.87;99035.56;4424362;32;20472;-76
2022/05/11 10:56:05;;;;;;;7.07;3.80;;;;;;;26.27;37.52;99022.03;4431557;32;20135;-76
2022/05/11 10:58:54;;;;;;;4.80;2.97;;;;;;;26.68;36.59;99031.84;4414685;32;20491;-75
2022/05/11 11:01:22;;;;;;;5.00;3.00;;;;;;;26.70;35.33;99031.63;4414115;32;20355;-73
2022/05/11 11:03:59;;;;;;;4.32;2.95;;;;;;;26.75;33.96;99031.72;4412986;32;20140;-74
2022/05/11 11:09:25;;;;;;;7.35;2.92;;;;;;;26.77;33.07;99024.25;4479035;32;20434;-72
2022/05/11 11:11:55;;;;;;;5.22;3.08;;;;;;;26.85;35.07;99031.13;4469767;31;20100;-74
2022/05/11 11:14:31;;;;;;;4.70;2.70;;;;;;;27.06;34.23;99018.91;4481427;32;20442;-74
2022/05/11 11:17:05;;;;;;;3.72;2.90;;;;;;;27.15;35.78;99016.66;4470707;32;20390;-74
2022/05/11 11:19:34;;;;;;;6.03;2.80;;;;;;;27.39;35.64;99023.59;4477998;31;20132;-74
2022/05/11 11:22:04;;;;;;;6.07;3.00;;;;;;;27.63;36.04;99012.69;4478616;32;20105;-73
2022/05/11 11:24:33;;;;;;;4.07;2.37;;;;;;;27.50;32.53;99004.97;4482131;31;20101;-74
2022/05/11 11:27:03;;;;;;;3.72;2.90;;;;;;;26.64;30.95;99017.22;4471943;32;20179;-73
2022/05/11 11:29:59;;;;;;;3.67;2.75;;;;;;;26.79;32.60;99013.25;4485896;31;20109;-74
2022/05/11 11:32:27;;;;;;;8.50;2.90;;;;;;;26.64;33.36;99003.78;4480349;31;20128;-74
2022/05/11 11:35:22;;;;;;;4.82;2.78;;;;;;;26.72;35.08;99008.00;4478373;32;20088;-74
2022/05/11 11:38:01;;;;;;;3.75;2.30;;;;;;;26.96;35.07;99005.25;4469379;32;20646;-74
2022/05/11 11:40:30;;;;;;;8.10;2.75;;;;;;;27.11;30.95;99002.06;4481427;32;20089;-75
2022/05/11 11:42:58;;;;;;;4.90;2.60;;;;;;;26.61;30.63;99006.94;4484556;32;20454;-74
2022/05/11 11:45:29;;;;;;;5.15;2.60;;;;;;;26.31;31.25;98997.16;4484510;31;20160;-74
2022/05/11 11:48:25;;;;;;;2.55;2.35;;;;;;;26.34;30.65;98993.19;4477390;31;20092;-75
2022/05/11 11:50:59;;;;;;;3.37;2.80;;;;;;;26.31;30.87;98993.66;4481697;32;20196;-73
2022/05/11 11:53:36;;;;;;;4.60;2.55;;;;;;;26.53;33.11;98988.50;4479762;31;20092;-73
2022/05/11 11:56:25;;;;;;;7.90;2.42;;;;;;;26.80;33.05;98988.00;4482425;31;20171;-73
2022/05/11 11:59:09;;;;;;;4.25;2.60;;;;;;;27.13;28.99;98986.50;4479703;32;20084;-74
2022/05/11 12:01:40;;;;;;;4.80;2.55;;;;;;;27.18;34.04;98973.16;4470282;32;20112;-74
2022/05/11 12:04:18;;;;;;;5.03;2.33;;;;;;;27.32;33.62;98977.19;4473223;32;20548;-75
2022/05/11 12:15:20;;;;;;;5.85;2.92;;;;;;;27.56;33.50;98964.44;4478599;32;20519;-74
2022/05/11 12:17:47;;;;;;;7.65;2.85;;;;;;;27.77;33.55;98962.09;4483700;31;20084;-74
2022/05/11 12:20:17;;;;;;;6.05;4.18;;;;;;;27.66;30.78;98958.41;4481516;32;20108;-76
2022/05/11 12:22:57;;;;;;;4.20;2.72;;;;;;;27.86;32.40;98957.91;4472938;32;20136;-74
2022/05/11 12:25:36;;;;;;;5.10;3.17;;;;;;;28.25;33.71;98962.53;4482475;32;20496;-74
2022/05/11 12:28:27;;;;;;;4.32;2.40;;;;;;;28.26;33.28;98958.78;4483050;32;20534;-74
2022/05/11 12:30:56;;;;;;;6.57;3.10;;;;;;;28.28;31.78;98953.94;4484837;32;20134;-74
2022/05/11 12:33:32;;;;;;;4.90;2.53;;;;;;;28.32;31.04;98960.47;4469384;32;20115;-74